sensor_id;sensor_type;location;lat;lon;timestamp;temperature;humidity
22185;DHT22;11258;52.516;13.318;2023-03-23T00:01:12;13.20;99.90
22185;DHT22;11258;52.516;13.318;2023-03-23T00:03:39;13.20;99.90
22185;DHT22;11258;52.516;13.318;2023-03-23T00:06:06;13.20;99.90
22185;DHT22;11258;52.516;13.318;2023-03-23T00:08:33;13.10;99.90
22185;DHT22;11258;52.516;13.318;2023-03-23T00:11:04;13.20;99.90
22185;DHT22;11258;52.516;13.318;2023-03-23T00:13:29;13.10;99.90
22185;DHT22;11258;52.516;13.318;2023-03-23T00:15:55;13.10;99.90
22185;DHT22;11258;52.516;13.318;2023-03-23T00:18:23;13.10;99.90
22185;DHT22;11258;52.516;13.318;2023-03-23T00:20:53;13.00;99.90
22185;DHT22;11258;52.516;13.318;2023-03-23T00:23:22;13.00;99.90
22185;DHT22;11258;52.516;13.318;2023-03-23T00:25:50;13.00;99.90
22185;DHT22;11258;52.516;13.318;2023-03-23T00:28:19;13.00;99.90
22185;DHT22;11258;52.516;13.318;2023-03-23T00:31:05;12.90;99.90
22185;DHT22;11258;52.516;13.318;2023-03-23T00:33:33;12.90;99.90
22185;DHT22;11258;52.516;13.318;2023-03-23T00:36:04;12.90;99.90
22185;DHT22;11258;52.516;13.318;2023-03-23T00:38:30;12.90;99.90
22185;DHT22;11258;52.516;13.318;2023-03-23T00:40:55;12.90;99.90
22185;DHT22;11258;52.516;13.318;2023-03-23T00:43:23;12.90;99.90
22185;DHT22;11258;52.516;13.318;2023-03-23T00:45:55;12.80;99.90
22185;DHT22;11258;52.516;13.318;2023-03-23T00:48:24;12.80;99.90
22185;DHT22;11258;52.516;13.318;2023-03-23T00:50:50;12.80;99.90
22185;DHT22;11258;52.516;13.318;2023-03-23T00:53:17;12.80;99.90
22185;DHT22;11258;52.516;13.318;2023-03-23T00:55:44;12.80;99.90
22185;DHT22;11258;52.516;13.318;2023-03-23T00:58:12;12.70;99.90
22185;DHT22;11258;52.516;13.318;2023-03-23T01:00:38;12.70;99.90
22185;DHT22;11258;52.516;13.318;2023-03-23T01:03:04;12.70;99.90
22185;DHT22;11258;52.516;13.318;2023-03-23T01:05:40;12.70;99.90
22185;DHT22;11258;52.516;13.318;2023-03-23T01:08:06;12.70;99.90
22185;DHT22;11258;52.516;13.318;2023-03-23T01:10:32;12.70;99.90
22185;DHT22;11258;52.516;13.318;2023-03-23T01:13:02;12.70;99.90
22185;DHT22;11258;52.516;13.318;2023-03-23T01:15:28;12.60;99.90
22185;DHT22;11258;52.516;13.318;2023-03-23T01:17:55;12.60;99.90
22185;DHT22;11258;52.516;13.318;2023-03-23T01:20:21;12.60;99.90
22185;DHT22;11258;52.516;13.318;2023-03-23T01:22:46;12.60;99.90
22185;DHT22;11258;52.516;13.318;2023-03-23T01:25:13;12.50;99.90
22185;DHT22;11258;52.516;13.318;2023-03-23T01:27:39;12.50;99.90
22185;DHT22;11258;52.516;13.318;2023-03-23T01:30:08;12.50;99.90
22185;DHT22;11258;52.516;13.318;2023-03-23T01:32:35;12.50;99.90
22185;DHT22;11258;52.516;13.318;2023-03-23T01:35:01;12.40;99.90
22185;DHT22;11258;52.516;13.318;2023-03-23T01:37:27;12.40;99.90
22185;DHT22;11258;52.516;13.318;2023-03-23T01:39:56;12.40;99.90
22185;DHT22;11258;52.516;13.318;2023-03-23T01:42:29;12.40;99.90
22185;DHT22;11258;52.516;13.318;2023-03-23T01:47:40;12.40;99.90
22185;DHT22;11258;52.516;13.318;2023-03-23T01:50:06;12.50;99.90
22185;DHT22;11258;52.516;13.318;2023-03-23T01:52:31;12.40;99.90
22185;DHT22;11258;52.516;13.318;2023-03-23T01:54:59;12.40;99.90
22185;DHT22;11258;52.516;13.318;2023-03-23T01:57:26;12.40;99.90
22185;DHT22;11258;52.516;13.318;2023-03-23T01:59:53;12.50;99.90
22185;DHT22;11258;52.516;13.318;2023-03-23T02:02:22;12.50;99.90
22185;DHT22;11258;52.516;13.318;2023-03-23T02:04:48;12.50;99.90
22185;DHT22;11258;52.516;13.318;2023-03-23T02:07:15;12.50;99.90
22185;DHT22;11258;52.516;13.318;2023-03-23T02:09:42;12.50;99.90
22185;DHT22;11258;52.516;13.318;2023-03-23T02:12:08;12.50;99.90
22185;DHT22;11258;52.516;13.318;2023-03-23T02:14:34;12.50;99.90
22185;DHT22;11258;52.516;13.318;2023-03-23T02:20:17;12.40;99.90
22185;DHT22;11258;52.516;13.318;2023-03-23T02:36:13;12.50;99.90
22185;DHT22;11258;52.516;13.318;2023-03-23T02:38:51;12.50;99.90
22185;DHT22;11258;52.516;13.318;2023-03-23T02:41:24;12.50;99.90
22185;DHT22;11258;52.516;13.318;2023-03-23T02:43:52;12.60;99.90
22185;DHT22;11258;52.516;13.318;2023-03-23T02:46:19;12.60;99.90
22185;DHT22;11258;52.516;13.318;2023-03-23T02:48:46;12.50;99.90
22185;DHT22;11258;52.516;13.318;2023-03-23T02:51:14;12.50;99.90
22185;DHT22;11258;52.516;13.318;2023-03-23T02:53:42;12.50;99.90
22185;DHT22;11258;52.516;13.318;2023-03-23T02:56:09;12.50;99.90
22185;DHT22;11258;52.516;13.318;2023-03-23T02:58:35;12.50;99.90
22185;DHT22;11258;52.516;13.318;2023-03-23T03:03:54;12.50;99.90
22185;DHT22;11258;52.516;13.318;2023-03-23T03:12:00;12.40;99.90
22185;DHT22;11258;52.516;13.318;2023-03-23T03:14:32;12.50;99.90
22185;DHT22;11258;52.516;13.318;2023-03-23T03:17:25;12.40;99.90
22185;DHT22;11258;52.516;13.318;2023-03-23T03:19:55;12.40;99.90
22185;DHT22;11258;52.516;13.318;2023-03-23T03:22:23;12.40;99.90
22185;DHT22;11258;52.516;13.318;2023-03-23T03:24:58;12.40;99.90
22185;DHT22;11258;52.516;13.318;2023-03-23T03:27:25;12.40;99.90
22185;DHT22;11258;52.516;13.318;2023-03-23T03:29:56;12.40;99.90
22185;DHT22;11258;52.516;13.318;2023-03-23T03:32:41;12.40;99.90
22185;DHT22;11258;52.516;13.318;2023-03-23T03:35:09;12.40;99.90
22185;DHT22;11258;52.516;13.318;2023-03-23T03:37:37;12.40;99.90
22185;DHT22;11258;52.516;13.318;2023-03-23T03:40:09;12.50;99.90
22185;DHT22;11258;52.516;13.318;2023-03-23T03:42:38;12.40;99.90
22185;DHT22;11258;52.516;13.318;2023-03-23T03:45:06;12.40;99.90
22185;DHT22;11258;52.516;13.318;2023-03-23T03:47:33;12.40;99.90
22185;DHT22;11258;52.516;13.318;2023-03-23T03:49:58;12.50;99.90
22185;DHT22;11258;52.516;13.318;2023-03-23T03:52:24;12.40;99.90
22185;DHT22;11258;52.516;13.318;2023-03-23T03:54:50;12.50;99.90
22185;DHT22;11258;52.516;13.318;2023-03-23T03:57:16;12.40;99.90
22185;DHT22;11258;52.516;13.318;2023-03-23T03:59:43;12.40;99.90
22185;DHT22;11258;52.516;13.318;2023-03-23T04:02:09;12.40;99.90
22185;DHT22;11258;52.516;13.318;2023-03-23T04:04:39;12.40;99.90
22185;DHT22;11258;52.516;13.318;2023-03-23T04:07:04;12.40;99.90
22185;DHT22;11258;52.516;13.318;2023-03-23T04:09:30;12.40;99.90
22185;DHT22;11258;52.516;13.318;2023-03-23T04:11:57;12.40;99.90
22185;DHT22;11258;52.516;13.318;2023-03-23T04:14:22;12.30;99.90
22185;DHT22;11258;52.516;13.318;2023-03-23T04:16:48;12.40;99.90
22185;DHT22;11258;52.516;13.318;2023-03-23T04:19:25;12.40;99.90
22185;DHT22;11258;52.516;13.318;2023-03-23T04:21:53;12.30;99.90
22185;DHT22;11258;52.516;13.318;2023-03-23T04:24:20;12.40;99.90
22185;DHT22;11258;52.516;13.318;2023-03-23T04:26:47;12.30;99.90
22185;DHT22;11258;52.516;13.318;2023-03-23T04:29:13;12.30;99.90
22185;DHT22;11258;52.516;13.318;2023-03-23T04:31:39;12.30;99.90
22185;DHT22;11258;52.516;13.318;2023-03-23T04:34:06;12.30;99.90
22185;DHT22;11258;52.516;13.318;2023-03-23T04:36:31;12.30;99.90
22185;DHT22;11258;52.516;13.318;2023-03-23T04:38:59;12.30;99.90
22185;DHT22;11258;52.516;13.318;2023-03-23T04:41:26;12.30;99.90
22185;DHT22;11258;52.516;13.318;2023-03-23T04:43:52;12.30;99.90
22185;DHT22;11258;52.516;13.318;2023-03-23T04:46:19;12.30;99.90
22185;DHT22;11258;52.516;13.318;2023-03-23T04:48:47;12.30;99.90
22185;DHT22;11258;52.516;13.318;2023-03-23T04:51:12;12.30;99.90
22185;DHT22;11258;52.516;13.318;2023-03-23T04:53:39;12.30;99.90
22185;DHT22;11258;52.516;13.318;2023-03-23T04:56:05;12.30;99.90
22185;DHT22;11258;52.516;13.318;2023-03-23T04:58:31;12.30;99.90
22185;DHT22;11258;52.516;13.318;2023-03-23T05:01:00;12.20;99.90
22185;DHT22;11258;52.516;13.318;2023-03-23T05:03:26;12.20;99.90
22185;DHT22;11258;52.516;13.318;2023-03-23T05:05:53;12.20;99.90
22185;DHT22;11258;52.516;13.318;2023-03-23T05:08:29;12.20;99.90
22185;DHT22;11258;52.516;13.318;2023-03-23T05:10:56;12.20;99.90
22185;DHT22;11258;52.516;13.318;2023-03-23T05:13:22;12.20;99.90
22185;DHT22;11258;52.516;13.318;2023-03-23T05:15:49;12.20;99.90
22185;DHT22;11258;52.516;13.318;2023-03-23T05:18:15;12.20;99.90
22185;DHT22;11258;52.516;13.318;2023-03-23T05:20:41;12.20;99.90
22185;DHT22;11258;52.516;13.318;2023-03-23T05:23:08;12.10;99.90
22185;DHT22;11258;52.516;13.318;2023-03-23T05:25:35;12.10;99.90
22185;DHT22;11258;52.516;13.318;2023-03-23T05:28:04;12.10;99.90
22185;DHT22;11258;52.516;13.318;2023-03-23T05:30:30;12.10;99.90
22185;DHT22;11258;52.516;13.318;2023-03-23T05:32:56;12.10;99.90
22185;DHT22;11258;52.516;13.318;2023-03-23T05:35:21;12.10;99.90
22185;DHT22;11258;52.516;13.318;2023-03-23T05:37:48;12.10;99.90
22185;DHT22;11258;52.516;13.318;2023-03-23T05:40:14;12.10;99.90
22185;DHT22;11258;52.516;13.318;2023-03-23T05:42:41;12.10;99.90
22185;DHT22;11258;52.516;13.318;2023-03-23T05:45:08;12.00;99.90
22185;DHT22;11258;52.516;13.318;2023-03-23T05:47:34;12.00;99.90
22185;DHT22;11258;52.516;13.318;2023-03-23T05:50:00;12.00;99.90
22185;DHT22;11258;52.516;13.318;2023-03-23T05:52:26;11.90;99.90
22185;DHT22;11258;52.516;13.318;2023-03-23T05:54:52;11.90;99.90
22185;DHT22;11258;52.516;13.318;2023-03-23T05:57:18;11.90;99.90
22185;DHT22;11258;52.516;13.318;2023-03-23T05:59:47;11.90;99.90
22185;DHT22;11258;52.516;13.318;2023-03-23T06:02:13;11.80;99.90
22185;DHT22;11258;52.516;13.318;2023-03-23T06:04:40;11.80;99.90
22185;DHT22;11258;52.516;13.318;2023-03-23T06:07:07;11.70;99.90
22185;DHT22;11258;52.516;13.318;2023-03-23T06:09:33;11.70;99.90
22185;DHT22;11258;52.516;13.318;2023-03-23T06:11:58;11.70;99.90
22185;DHT22;11258;52.516;13.318;2023-03-23T06:14:24;11.70;99.90
22185;DHT22;11258;52.516;13.318;2023-03-23T06:16:50;11.70;99.90
22185;DHT22;11258;52.516;13.318;2023-03-23T06:19:16;11.70;99.90
22185;DHT22;11258;52.516;13.318;2023-03-23T06:21:42;11.70;99.90
22185;DHT22;11258;52.516;13.318;2023-03-23T06:24:08;11.70;99.90
22185;DHT22;11258;52.516;13.318;2023-03-23T06:26:36;11.70;99.90
22185;DHT22;11258;52.516;13.318;2023-03-23T06:29:04;11.70;99.90
22185;DHT22;11258;52.516;13.318;2023-03-23T06:31:37;11.70;99.90
22185;DHT22;11258;52.516;13.318;2023-03-23T06:34:04;11.70;99.90
22185;DHT22;11258;52.516;13.318;2023-03-23T06:36:30;11.70;99.90
22185;DHT22;11258;52.516;13.318;2023-03-23T06:38:56;11.70;99.90
22185;DHT22;11258;52.516;13.318;2023-03-23T06:41:21;11.80;99.90
22185;DHT22;11258;52.516;13.318;2023-03-23T06:43:47;11.70;99.90
22185;DHT22;11258;52.516;13.318;2023-03-23T06:46:13;11.80;99.90
22185;DHT22;11258;52.516;13.318;2023-03-23T06:48:38;11.80;99.90
22185;DHT22;11258;52.516;13.318;2023-03-23T06:51:04;11.80;99.90
22185;DHT22;11258;52.516;13.318;2023-03-23T06:53:31;11.80;99.90
22185;DHT22;11258;52.516;13.318;2023-03-23T06:55:56;11.80;99.90
22185;DHT22;11258;52.516;13.318;2023-03-23T06:58:22;11.80;99.90
22185;DHT22;11258;52.516;13.318;2023-03-23T07:00:53;11.90;99.90
22185;DHT22;11258;52.516;13.318;2023-03-23T07:03:19;11.90;99.90
22185;DHT22;11258;52.516;13.318;2023-03-23T07:05:46;11.90;99.90
22185;DHT22;11258;52.516;13.318;2023-03-23T07:08:13;11.90;99.90
22185;DHT22;11258;52.516;13.318;2023-03-23T07:10:38;11.90;99.90
22185;DHT22;11258;52.516;13.318;2023-03-23T07:13:04;11.90;99.90
22185;DHT22;11258;52.516;13.318;2023-03-23T07:15:30;11.90;99.90
22185;DHT22;11258;52.516;13.318;2023-03-23T07:17:56;11.90;99.90
22185;DHT22;11258;52.516;13.318;2023-03-23T07:20:22;11.90;99.90
22185;DHT22;11258;52.516;13.318;2023-03-23T07:22:47;11.80;99.90
22185;DHT22;11258;52.516;13.318;2023-03-23T07:25:13;11.80;99.90
22185;DHT22;11258;52.516;13.318;2023-03-23T07:27:39;11.80;99.90
22185;DHT22;11258;52.516;13.318;2023-03-23T07:30:05;11.80;99.90
22185;DHT22;11258;52.516;13.318;2023-03-23T07:32:31;11.80;99.90
22185;DHT22;11258;52.516;13.318;2023-03-23T07:34:57;12.00;99.90
22185;DHT22;11258;52.516;13.318;2023-03-23T07:37:22;12.00;99.90
22185;DHT22;11258;52.516;13.318;2023-03-23T07:39:48;12.00;99.90
22185;DHT22;11258;52.516;13.318;2023-03-23T07:42:14;12.10;99.90
22185;DHT22;11258;52.516;13.318;2023-03-23T07:44:39;12.10;99.90
22185;DHT22;11258;52.516;13.318;2023-03-23T07:47:05;12.20;99.90
22185;DHT22;11258;52.516;13.318;2023-03-23T07:49:31;12.20;99.90
22185;DHT22;11258;52.516;13.318;2023-03-23T07:51:58;12.10;99.90
22185;DHT22;11258;52.516;13.318;2023-03-23T07:54:24;12.10;99.90
22185;DHT22;11258;52.516;13.318;2023-03-23T07:56:50;12.20;99.90
22185;DHT22;11258;52.516;13.318;2023-03-23T07:59:16;12.10;99.90
22185;DHT22;11258;52.516;13.318;2023-03-23T08:01:42;12.30;99.90
22185;DHT22;11258;52.516;13.318;2023-03-23T08:04:08;12.20;99.90
22185;DHT22;11258;52.516;13.318;2023-03-23T08:06:34;12.30;99.90
22185;DHT22;11258;52.516;13.318;2023-03-23T08:09:00;12.30;99.90
22185;DHT22;11258;52.516;13.318;2023-03-23T08:11:28;12.30;99.90
22185;DHT22;11258;52.516;13.318;2023-03-23T08:13:53;12.40;99.90
22185;DHT22;11258;52.516;13.318;2023-03-23T08:16:19;12.50;99.90
22185;DHT22;11258;52.516;13.318;2023-03-23T08:18:45;12.60;99.90
22185;DHT22;11258;52.516;13.318;2023-03-23T08:21:11;12.60;99.90
22185;DHT22;11258;52.516;13.318;2023-03-23T08:23:38;12.60;99.90
22185;DHT22;11258;52.516;13.318;2023-03-23T08:26:08;12.50;99.90
22185;DHT22;11258;52.516;13.318;2023-03-23T08:28:36;12.50;99.90
22185;DHT22;11258;52.516;13.318;2023-03-23T08:31:12;12.60;99.90
22185;DHT22;11258;52.516;13.318;2023-03-23T08:33:39;12.60;99.90
22185;DHT22;11258;52.516;13.318;2023-03-23T08:36:07;12.60;99.90
22185;DHT22;11258;52.516;13.318;2023-03-23T08:38:33;12.50;99.90
22185;DHT22;11258;52.516;13.318;2023-03-23T08:41:00;12.60;99.90
22185;DHT22;11258;52.516;13.318;2023-03-23T08:43:26;12.60;99.90
22185;DHT22;11258;52.516;13.318;2023-03-23T08:45:53;12.70;99.90
22185;DHT22;11258;52.516;13.318;2023-03-23T08:48:19;12.80;99.90
22185;DHT22;11258;52.516;13.318;2023-03-23T08:50:45;12.90;99.90
22185;DHT22;11258;52.516;13.318;2023-03-23T08:53:11;13.00;99.90
22185;DHT22;11258;52.516;13.318;2023-03-23T08:55:37;13.00;99.90
22185;DHT22;11258;52.516;13.318;2023-03-23T08:58:04;13.00;99.90
22185;DHT22;11258;52.516;13.318;2023-03-23T09:00:30;13.00;99.90
22185;DHT22;11258;52.516;13.318;2023-03-23T09:02:56;13.00;99.90
22185;DHT22;11258;52.516;13.318;2023-03-23T09:05:24;13.10;99.90
22185;DHT22;11258;52.516;13.318;2023-03-23T09:07:52;13.30;99.90
22185;DHT22;11258;52.516;13.318;2023-03-23T09:10:18;13.40;99.90
22185;DHT22;11258;52.516;13.318;2023-03-23T09:12:45;13.60;99.90
22185;DHT22;11258;52.516;13.318;2023-03-23T09:15:14;13.60;99.90
22185;DHT22;11258;52.516;13.318;2023-03-23T09:17:43;13.60;99.90
22185;DHT22;11258;52.516;13.318;2023-03-23T09:20:11;13.50;99.90
22185;DHT22;11258;52.516;13.318;2023-03-23T09:22:39;13.40;99.90
22185;DHT22;11258;52.516;13.318;2023-03-23T09:25:06;13.50;99.90
22185;DHT22;11258;52.516;13.318;2023-03-23T09:27:32;13.50;99.90
22185;DHT22;11258;52.516;13.318;2023-03-23T09:29:58;13.60;99.90
22185;DHT22;11258;52.516;13.318;2023-03-23T09:32:26;13.80;99.90
22185;DHT22;11258;52.516;13.318;2023-03-23T09:34:52;14.20;99.90
22185;DHT22;11258;52.516;13.318;2023-03-23T09:37:20;14.50;99.90
22185;DHT22;11258;52.516;13.318;2023-03-23T09:39:46;14.90;99.90
22185;DHT22;11258;52.516;13.318;2023-03-23T09:42:41;15.20;99.90
22185;DHT22;11258;52.516;13.318;2023-03-23T09:45:25;15.50;99.90
22185;DHT22;11258;52.516;13.318;2023-03-23T09:50:28;15.80;99.90
22185;DHT22;11258;52.516;13.318;2023-03-23T09:53:19;15.90;99.90
22185;DHT22;11258;52.516;13.318;2023-03-23T09:55:46;15.80;99.90
22185;DHT22;11258;52.516;13.318;2023-03-23T09:58:33;15.80;99.90
22185;DHT22;11258;52.516;13.318;2023-03-23T10:01:12;15.90;99.90
22185;DHT22;11258;52.516;13.318;2023-03-23T10:03:43;15.90;99.90
22185;DHT22;11258;52.516;13.318;2023-03-23T10:06:11;15.90;99.90
22185;DHT22;11258;52.516;13.318;2023-03-23T10:08:41;15.70;99.90
22185;DHT22;11258;52.516;13.318;2023-03-23T10:11:31;15.50;99.90
22185;DHT22;11258;52.516;13.318;2023-03-23T10:20:22;15.20;99.90
22185;DHT22;11258;52.516;13.318;2023-03-23T10:22:52;15.10;99.90
22185;DHT22;11258;52.516;13.318;2023-03-23T10:25:25;15.10;99.90
22185;DHT22;11258;52.516;13.318;2023-03-23T10:30:43;15.30;99.90
22185;DHT22;11258;52.516;13.318;2023-03-23T10:33:25;15.40;99.90
22185;DHT22;11258;52.516;13.318;2023-03-23T10:36:28;15.40;99.90
22185;DHT22;11258;52.516;13.318;2023-03-23T10:41:34;15.70;99.90
22185;DHT22;11258;52.516;13.318;2023-03-23T10:44:00;15.70;99.90
22185;DHT22;11258;52.516;13.318;2023-03-23T10:49:10;15.90;99.90
22185;DHT22;11258;52.516;13.318;2023-03-23T10:51:44;15.90;99.90
22185;DHT22;11258;52.516;13.318;2023-03-23T10:54:12;15.80;99.90
22185;DHT22;11258;52.516;13.318;2023-03-23T10:56:43;15.70;99.90
22185;DHT22;11258;52.516;13.318;2023-03-23T10:59:20;15.70;99.90
22185;DHT22;11258;52.516;13.318;2023-03-23T11:01:50;15.60;99.90
22185;DHT22;11258;52.516;13.318;2023-03-23T11:04:17;15.40;99.90
22185;DHT22;11258;52.516;13.318;2023-03-23T11:06:46;15.40;99.90
22185;DHT22;11258;52.516;13.318;2023-03-23T11:09:19;15.30;99.90
22185;DHT22;11258;52.516;13.318;2023-03-23T11:11:50;15.40;99.90
22185;DHT22;11258;52.516;13.318;2023-03-23T11:14:28;15.30;99.90
22185;DHT22;11258;52.516;13.318;2023-03-23T11:16:56;15.30;99.90
22185;DHT22;11258;52.516;13.318;2023-03-23T11:19:26;15.30;99.90
22185;DHT22;11258;52.516;13.318;2023-03-23T11:21:55;15.40;99.90
22185;DHT22;11258;52.516;13.318;2023-03-23T11:24:25;15.30;99.90
22185;DHT22;11258;52.516;13.318;2023-03-23T11:26:52;15.30;99.90
22185;DHT22;11258;52.516;13.318;2023-03-23T11:29:24;15.40;99.90
22185;DHT22;11258;52.516;13.318;2023-03-23T11:32:01;15.60;99.90
22185;DHT22;11258;52.516;13.318;2023-03-23T11:39:55;15.90;99.90
22185;DHT22;11258;52.516;13.318;2023-03-23T11:42:22;16.00;99.90
22185;DHT22;11258;52.516;13.318;2023-03-23T11:44:53;16.10;99.90
22185;DHT22;11258;52.516;13.318;2023-03-23T11:47:39;16.20;99.90
22185;DHT22;11258;52.516;13.318;2023-03-23T11:53:01;16.30;99.90
22185;DHT22;11258;52.516;13.318;2023-03-23T11:58:12;16.20;99.90
22185;DHT22;11258;52.516;13.318;2023-03-23T12:00:56;16.20;99.90
22185;DHT22;11258;52.516;13.318;2023-03-23T12:03:25;16.20;99.90
22185;DHT22;11258;52.516;13.318;2023-03-23T12:06:13;16.30;99.90
22185;DHT22;11258;52.516;13.318;2023-03-23T12:14:30;16.30;99.90
22185;DHT22;11258;52.516;13.318;2023-03-23T12:17:24;16.20;99.90
22185;DHT22;11258;52.516;13.318;2023-03-23T12:22:56;16.00;99.90
22185;DHT22;11258;52.516;13.318;2023-03-23T12:31:33;16.00;99.90
22185;DHT22;11258;52.516;13.318;2023-03-23T12:37:01;16.00;99.90
22185;DHT22;11258;52.516;13.318;2023-03-23T12:47:46;16.20;99.90
22185;DHT22;11258;52.516;13.318;2023-03-23T12:50:26;16.20;99.90
22185;DHT22;11258;52.516;13.318;2023-03-23T12:53:08;16.20;99.90
22185;DHT22;11258;52.516;13.318;2023-03-23T12:58:28;16.50;99.90
22185;DHT22;11258;52.516;13.318;2023-03-23T13:04:26;16.80;99.90
22185;DHT22;11258;52.516;13.318;2023-03-23T13:06:53;16.90;99.90
22185;DHT22;11258;52.516;13.318;2023-03-23T13:11:49;17.20;99.90
22185;DHT22;11258;52.516;13.318;2023-03-23T13:17:03;17.20;99.90
22185;DHT22;11258;52.516;13.318;2023-03-23T13:19:56;17.20;99.90
22185;DHT22;11258;52.516;13.318;2023-03-23T13:22:23;17.00;99.90
22185;DHT22;11258;52.516;13.318;2023-03-23T13:24:59;16.90;99.90
22185;DHT22;11258;52.516;13.318;2023-03-23T13:27:28;16.80;99.90
22185;DHT22;11258;52.516;13.318;2023-03-23T13:29:56;16.80;99.90
22185;DHT22;11258;52.516;13.318;2023-03-23T13:32:36;16.80;99.90
22185;DHT22;11258;52.516;13.318;2023-03-23T13:35:12;16.80;99.90
22185;DHT22;11258;52.516;13.318;2023-03-23T13:37:46;16.90;99.90
22185;DHT22;11258;52.516;13.318;2023-03-23T13:40:27;16.90;99.90
22185;DHT22;11258;52.516;13.318;2023-03-23T13:42:56;16.80;99.90
22185;DHT22;11258;52.516;13.318;2023-03-23T13:48:23;16.70;99.90
22185;DHT22;11258;52.516;13.318;2023-03-23T13:50:55;16.70;99.90
22185;DHT22;11258;52.516;13.318;2023-03-23T13:58:45;16.70;99.90
22185;DHT22;11258;52.516;13.318;2023-03-23T14:01:29;16.70;99.90
22185;DHT22;11258;52.516;13.318;2023-03-23T14:03:59;16.80;99.90
22185;DHT22;11258;52.516;13.318;2023-03-23T14:06:33;16.90;99.90
22185;DHT22;11258;52.516;13.318;2023-03-23T14:09:06;17.10;99.90
22185;DHT22;11258;52.516;13.318;2023-03-23T14:11:50;17.20;99.90
22185;DHT22;11258;52.516;13.318;2023-03-23T14:14:34;17.30;99.90
22185;DHT22;11258;52.516;13.318;2023-03-23T14:19:49;17.30;99.90
22185;DHT22;11258;52.516;13.318;2023-03-23T14:22:36;17.30;99.90
22185;DHT22;11258;52.516;13.318;2023-03-23T14:25:16;17.30;99.90
22185;DHT22;11258;52.516;13.318;2023-03-23T14:27:42;17.20;99.90
22185;DHT22;11258;52.516;13.318;2023-03-23T14:30:14;17.30;99.90
22185;DHT22;11258;52.516;13.318;2023-03-23T14:32:40;17.20;99.90
22185;DHT22;11258;52.516;13.318;2023-03-23T14:35:25;17.10;99.90
22185;DHT22;11258;52.516;13.318;2023-03-23T14:37:52;17.00;99.90
22185;DHT22;11258;52.516;13.318;2023-03-23T14:40:18;16.90;99.90
22185;DHT22;11258;52.516;13.318;2023-03-23T14:42:45;16.70;99.90
22185;DHT22;11258;52.516;13.318;2023-03-23T14:45:15;16.60;99.90
22185;DHT22;11258;52.516;13.318;2023-03-23T14:47:45;16.50;99.90
22185;DHT22;11258;52.516;13.318;2023-03-23T14:50:38;16.40;99.90
22185;DHT22;11258;52.516;13.318;2023-03-23T14:53:39;16.30;99.90
22185;DHT22;11258;52.516;13.318;2023-03-23T14:56:14;16.30;99.90
22185;DHT22;11258;52.516;13.318;2023-03-23T14:58:52;16.40;99.90
22185;DHT22;11258;52.516;13.318;2023-03-23T15:01:27;16.60;99.90
22185;DHT22;11258;52.516;13.318;2023-03-23T15:06:42;16.80;99.90
22185;DHT22;11258;52.516;13.318;2023-03-23T15:09:27;16.80;99.90
22185;DHT22;11258;52.516;13.318;2023-03-23T15:11:58;16.80;99.90
22185;DHT22;11258;52.516;13.318;2023-03-23T15:14:29;16.80;99.90
22185;DHT22;11258;52.516;13.318;2023-03-23T15:16:56;16.80;99.90
22185;DHT22;11258;52.516;13.318;2023-03-23T15:19:32;16.80;99.90
22185;DHT22;11258;52.516;13.318;2023-03-23T15:22:22;16.80;99.90
22185;DHT22;11258;52.516;13.318;2023-03-23T15:24:49;16.60;99.90
22185;DHT22;11258;52.516;13.318;2023-03-23T15:29:52;16.60;99.90
22185;DHT22;11258;52.516;13.318;2023-03-23T15:32:42;16.60;99.90
22185;DHT22;11258;52.516;13.318;2023-03-23T15:35:15;16.50;99.90
22185;DHT22;11258;52.516;13.318;2023-03-23T15:37:58;16.50;99.90
22185;DHT22;11258;52.516;13.318;2023-03-23T15:40:26;16.50;99.90
22185;DHT22;11258;52.516;13.318;2023-03-23T15:43:21;16.50;99.90
22185;DHT22;11258;52.516;13.318;2023-03-23T15:48:18;16.30;99.90
22185;DHT22;11258;52.516;13.318;2023-03-23T15:50:46;16.30;99.90
22185;DHT22;11258;52.516;13.318;2023-03-23T15:55:44;16.20;99.90
22185;DHT22;11258;52.516;13.318;2023-03-23T15:58:12;16.20;99.90
22185;DHT22;11258;52.516;13.318;2023-03-23T16:00:38;16.20;99.90
22185;DHT22;11258;52.516;13.318;2023-03-23T16:03:07;16.20;99.90
22185;DHT22;11258;52.516;13.318;2023-03-23T16:05:34;16.20;99.90
22185;DHT22;11258;52.516;13.318;2023-03-23T16:07:59;16.20;99.90
22185;DHT22;11258;52.516;13.318;2023-03-23T16:10:27;16.20;99.90
22185;DHT22;11258;52.516;13.318;2023-03-23T16:12:52;16.20;99.90
22185;DHT22;11258;52.516;13.318;2023-03-23T16:15:18;16.10;99.90
22185;DHT22;11258;52.516;13.318;2023-03-23T16:17:44;16.10;99.90
22185;DHT22;11258;52.516;13.318;2023-03-23T16:20:22;16.10;99.90
22185;DHT22;11258;52.516;13.318;2023-03-23T16:22:48;16.00;99.90
22185;DHT22;11258;52.516;13.318;2023-03-23T16:25:16;16.00;99.90
22185;DHT22;11258;52.516;13.318;2023-03-23T16:27:43;16.00;99.90
22185;DHT22;11258;52.516;13.318;2023-03-23T16:30:17;15.90;99.90
22185;DHT22;11258;52.516;13.318;2023-03-23T16:32:43;15.90;99.90
22185;DHT22;11258;52.516;13.318;2023-03-23T16:35:09;15.90;99.90
22185;DHT22;11258;52.516;13.318;2023-03-23T16:37:36;15.90;99.90
22185;DHT22;11258;52.516;13.318;2023-03-23T16:40:04;15.90;99.90
22185;DHT22;11258;52.516;13.318;2023-03-23T16:42:30;15.80;99.90
22185;DHT22;11258;52.516;13.318;2023-03-23T16:44:56;15.80;99.90
22185;DHT22;11258;52.516;13.318;2023-03-23T16:47:21;15.60;99.90
22185;DHT22;11258;52.516;13.318;2023-03-23T16:49:52;15.50;99.90
22185;DHT22;11258;52.516;13.318;2023-03-23T16:52:18;15.30;99.90
22185;DHT22;11258;52.516;13.318;2023-03-23T16:54:44;15.20;99.90
22185;DHT22;11258;52.516;13.318;2023-03-23T16:57:11;15.10;99.90
22185;DHT22;11258;52.516;13.318;2023-03-23T16:59:36;15.00;99.90
22185;DHT22;11258;52.516;13.318;2023-03-23T17:02:02;14.90;99.90
22185;DHT22;11258;52.516;13.318;2023-03-23T17:04:32;14.90;99.90
22185;DHT22;11258;52.516;13.318;2023-03-23T17:06:58;14.80;99.90
22185;DHT22;11258;52.516;13.318;2023-03-23T17:09:25;14.70;99.90
22185;DHT22;11258;52.516;13.318;2023-03-23T17:11:52;14.60;99.90
22185;DHT22;11258;52.516;13.318;2023-03-23T17:14:18;14.50;99.90
22185;DHT22;11258;52.516;13.318;2023-03-23T17:16:43;14.40;99.90
22185;DHT22;11258;52.516;13.318;2023-03-23T17:19:09;14.40;99.90
22185;DHT22;11258;52.516;13.318;2023-03-23T17:21:35;14.30;99.90
22185;DHT22;11258;52.516;13.318;2023-03-23T17:24:02;14.20;99.90